sensor_id;sensor_type;location;lat;lon;timestamp;P1;durP1;ratioP1;P2;durP2;ratioP2
6023;SDS011;3040;42.654;23.296;2023-06-26T00:00:06;22.47;;;20.20;;
6023;SDS011;3040;42.654;23.296;2023-06-26T00:02:34;22.83;;;20.57;;
6023;SDS011;3040;42.654;23.296;2023-06-26T00:05:00;21.60;;;19.60;;
6023;SDS011;3040;42.654;23.296;2023-06-26T00:07:29;21.47;;;19.47;;
6023;SDS011;3040;42.654;23.296;2023-06-26T00:09:57;23.00;;;20.53;;
6023;SDS011;3040;42.654;23.296;2023-06-26T00:12:24;21.83;;;19.63;;
6023;SDS011;3040;42.654;23.296;2023-06-26T00:14:51;20.00;;;18.37;;
6023;SDS011;3040;42.654;23.296;2023-06-26T00:17:18;19.97;;;18.17;;
6023;SDS011;3040;42.654;23.296;2023-06-26T00:19:45;20.60;;;18.57;;
6023;SDS011;3040;42.654;23.296;2023-06-26T00:22:12;20.60;;;18.40;;
6023;SDS011;3040;42.654;23.296;2023-06-26T00:24:38;19.60;;;17.57;;
6023;SDS011;3040;42.654;23.296;2023-06-26T00:27:07;19.03;;;17.20;;
6023;SDS011;3040;42.654;23.296;2023-06-26T00:29:34;19.37;;;17.67;;
6023;SDS011;3040;42.654;23.296;2023-06-26T00:32:00;18.70;;;17.00;;
6023;SDS011;3040;42.654;23.296;2023-06-26T00:34:27;18.37;;;16.57;;
6023;SDS011;3040;42.654;23.296;2023-06-26T00:36:54;17.73;;;16.10;;
6023;SDS011;3040;42.654;23.296;2023-06-26T00:39:21;17.80;;;16.27;;
6023;SDS011;3040;42.654;23.296;2023-06-26T00:41:51;17.47;;;16.07;;
6023;SDS011;3040;42.654;23.296;2023-06-26T00:44:21;16.13;;;15.00;;
6023;SDS011;3040;42.654;23.296;2023-06-26T00:46:48;17.00;;;15.37;;
6023;SDS011;3040;42.654;23.296;2023-06-26T00:49:15;16.93;;;15.47;;
6023;SDS011;3040;42.654;23.296;2023-06-26T00:51:42;16.57;;;15.07;;
6023;SDS011;3040;42.654;23.296;2023-06-26T00:54:09;16.30;;;15.13;;
6023;SDS011;3040;42.654;23.296;2023-06-26T00:56:36;17.70;;;16.30;;
6023;SDS011;3040;42.654;23.296;2023-06-26T00:59:04;15.77;;;14.50;;
6023;SDS011;3040;42.654;23.296;2023-06-26T01:01:32;15.87;;;14.53;;
6023;SDS011;3040;42.654;23.296;2023-06-26T01:03:58;16.17;;;15.07;;
6023;SDS011;3040;42.654;23.296;2023-06-26T01:06:26;16.13;;;14.83;;
6023;SDS011;3040;42.654;23.296;2023-06-26T01:08:57;15.70;;;14.53;;
6023;SDS011;3040;42.654;23.296;2023-06-26T01:11:24;17.07;;;15.30;;
6023;SDS011;3040;42.654;23.296;2023-06-26T01:13:51;14.77;;;13.57;;
6023;SDS011;3040;42.654;23.296;2023-06-26T01:16:20;15.77;;;14.57;;
6023;SDS011;3040;42.654;23.296;2023-06-26T01:18:49;15.97;;;14.87;;
6023;SDS011;3040;42.654;23.296;2023-06-26T01:21:16;14.13;;;13.27;;
6023;SDS011;3040;42.654;23.296;2023-06-26T01:23:49;16.07;;;14.57;;
6023;SDS011;3040;42.654;23.296;2023-06-26T01:26:27;15.93;;;14.73;;
6023;SDS011;3040;42.654;23.296;2023-06-26T01:28:56;16.23;;;14.87;;
6023;SDS011;3040;42.654;23.296;2023-06-26T01:31:25;16.73;;;14.80;;
6023;SDS011;3040;42.654;23.296;2023-06-26T01:33:53;16.47;;;14.93;;
6023;SDS011;3040;42.654;23.296;2023-06-26T01:36:21;15.97;;;14.80;;
6023;SDS011;3040;42.654;23.296;2023-06-26T01:38:48;15.83;;;14.63;;
6023;SDS011;3040;42.654;23.296;2023-06-26T01:41:16;17.20;;;15.70;;
6023;SDS011;3040;42.654;23.296;2023-06-26T01:43:49;17.30;;;15.63;;
6023;SDS011;3040;42.654;23.296;2023-06-26T01:46:39;16.73;;;15.57;;
6023;SDS011;3040;42.654;23.296;2023-06-26T01:49:09;17.00;;;15.50;;
6023;SDS011;3040;42.654;23.296;2023-06-26T01:51:55;16.00;;;14.87;;
6023;SDS011;3040;42.654;23.296;2023-06-26T01:54:26;16.70;;;15.27;;
6023;SDS011;3040;42.654;23.296;2023-06-26T01:56:58;16.57;;;15.10;;
6023;SDS011;3040;42.654;23.296;2023-06-26T01:59:27;16.23;;;15.10;;
6023;SDS011;3040;42.654;23.296;2023-06-26T02:01:57;17.00;;;15.07;;
6023;SDS011;3040;42.654;23.296;2023-06-26T02:04:23;16.40;;;15.30;;
6023;SDS011;3040;42.654;23.296;2023-06-26T02:06:50;16.67;;;15.00;;
6023;SDS011;3040;42.654;23.296;2023-06-26T02:09:18;16.13;;;14.73;;
6023;SDS011;3040;42.654;23.296;2023-06-26T02:11:45;15.70;;;14.60;;
6023;SDS011;3040;42.654;23.296;2023-06-26T02:14:12;15.23;;;14.03;;
6023;SDS011;3040;42.654;23.296;2023-06-26T02:16:40;16.50;;;15.03;;
6023;SDS011;3040;42.654;23.296;2023-06-26T02:19:07;16.63;;;14.93;;
6023;SDS011;3040;42.654;23.296;2023-06-26T02:21:34;16.97;;;15.37;;
6023;SDS011;3040;42.654;23.296;2023-06-26T02:24:01;18.37;;;16.73;;
6023;SDS011;3040;42.654;23.296;2023-06-26T02:26:27;18.00;;;16.60;;
6023;SDS011;3040;42.654;23.296;2023-06-26T02:28:54;19.17;;;17.30;;
6023;SDS011;3040;42.654;23.296;2023-06-26T02:31:21;18.50;;;16.83;;
6023;SDS011;3040;42.654;23.296;2023-06-26T02:33:51;17.57;;;15.80;;
6023;SDS011;3040;42.654;23.296;2023-06-26T02:36:17;17.13;;;15.57;;
6023;SDS011;3040;42.654;23.296;2023-06-26T02:38:44;18.03;;;16.37;;
6023;SDS011;3040;42.654;23.296;2023-06-26T02:41:11;18.80;;;17.43;;
6023;SDS011;3040;42.654;23.296;2023-06-26T02:43:38;18.87;;;17.20;;
6023;SDS011;3040;42.654;23.296;2023-06-26T02:46:05;19.40;;;17.67;;
6023;SDS011;3040;42.654;23.296;2023-06-26T02:48:31;18.93;;;16.90;;
6023;SDS011;3040;42.654;23.296;2023-06-26T02:51:00;19.43;;;17.83;;
6023;SDS011;3040;42.654;23.296;2023-06-26T02:53:27;18.93;;;17.43;;
6023;SDS011;3040;42.654;23.296;2023-06-26T02:55:53;20.53;;;18.90;;
6023;SDS011;3040;42.654;23.296;2023-06-26T02:58:20;19.57;;;17.63;;
6023;SDS011;3040;42.654;23.296;2023-06-26T03:00:47;19.80;;;18.37;;
6023;SDS011;3040;42.654;23.296;2023-06-26T03:03:14;20.27;;;18.57;;
6023;SDS011;3040;42.654;23.296;2023-06-26T03:05:41;21.60;;;19.40;;
6023;SDS011;3040;42.654;23.296;2023-06-26T03:08:09;20.00;;;18.17;;
6023;SDS011;3040;42.654;23.296;2023-06-26T03:10:36;18.70;;;17.37;;
6023;SDS011;3040;42.654;23.296;2023-06-26T03:13:03;20.43;;;18.33;;
6023;SDS011;3040;42.654;23.296;2023-06-26T03:15:29;19.63;;;17.83;;
6023;SDS011;3040;42.654;23.296;2023-06-26T03:17:56;19.43;;;18.03;;
6023;SDS011;3040;42.654;23.296;2023-06-26T03:20:23;19.97;;;18.43;;
6023;SDS011;3040;42.654;23.296;2023-06-26T03:22:50;20.10;;;18.60;;
6023;SDS011;3040;42.654;23.296;2023-06-26T03:25:18;20.93;;;19.20;;
6023;SDS011;3040;42.654;23.296;2023-06-26T03:27:45;21.30;;;19.43;;
6023;SDS011;3040;42.654;23.296;2023-06-26T03:30:12;20.87;;;19.07;;
6023;SDS011;3040;42.654;23.296;2023-06-26T03:32:39;21.43;;;19.53;;
6023;SDS011;3040;42.654;23.296;2023-06-26T03:35:06;20.13;;;18.37;;
6023;SDS011;3040;42.654;23.296;2023-06-26T03:37:34;21.07;;;19.47;;
6023;SDS011;3040;42.654;23.296;2023-06-26T03:40:01;21.33;;;19.70;;
6023;SDS011;3040;42.654;23.296;2023-06-26T03:42:31;20.73;;;19.07;;
6023;SDS011;3040;42.654;23.296;2023-06-26T03:44:57;21.27;;;19.33;;
6023;SDS011;3040;42.654;23.296;2023-06-26T03:47:24;21.23;;;19.53;;
6023;SDS011;3040;42.654;23.296;2023-06-26T03:49:51;20.53;;;18.97;;
6023;SDS011;3040;42.654;23.296;2023-06-26T03:52:18;20.17;;;18.23;;
6023;SDS011;3040;42.654;23.296;2023-06-26T03:54:45;21.53;;;19.80;;
6023;SDS011;3040;42.654;23.296;2023-06-26T03:57:11;20.77;;;19.17;;
6023;SDS011;3040;42.654;23.296;2023-06-26T03:59:39;21.90;;;19.87;;
6023;SDS011;3040;42.654;23.296;2023-06-26T04:02:06;21.30;;;19.57;;
6023;SDS011;3040;42.654;23.296;2023-06-26T04:04:33;20.50;;;18.80;;
6023;SDS011;3040;42.654;23.296;2023-06-26T04:07:00;21.60;;;20.00;;
6023;SDS011;3040;42.654;23.296;2023-06-26T04:09:27;19.90;;;18.50;;
6023;SDS011;3040;42.654;23.296;2023-06-26T04:11:54;20.47;;;18.97;;
6023;SDS011;3040;42.654;23.296;2023-06-26T04:14:21;19.60;;;18.27;;
6023;SDS011;3040;42.654;23.296;2023-06-26T04:16:49;19.00;;;17.53;;
6023;SDS011;3040;42.654;23.296;2023-06-26T04:19:16;19.57;;;17.97;;
6023;SDS011;3040;42.654;23.296;2023-06-26T04:21:42;19.23;;;17.50;;
6023;SDS011;3040;42.654;23.296;2023-06-26T04:24:09;18.10;;;16.77;;
6023;SDS011;3040;42.654;23.296;2023-06-26T04:26:36;17.47;;;16.33;;
6023;SDS011;3040;42.654;23.296;2023-06-26T04:29:06;17.73;;;16.30;;
6023;SDS011;3040;42.654;23.296;2023-06-26T04:31:33;18.13;;;16.57;;
6023;SDS011;3040;42.654;23.296;2023-06-26T04:34:01;19.40;;;17.97;;
6023;SDS011;3040;42.654;23.296;2023-06-26T04:36:28;19.83;;;18.03;;
6023;SDS011;3040;42.654;23.296;2023-06-26T04:38:55;18.33;;;17.07;;
6023;SDS011;3040;42.654;23.296;2023-06-26T04:41:21;19.60;;;17.87;;
6023;SDS011;3040;42.654;23.296;2023-06-26T04:43:48;19.23;;;17.63;;
6023;SDS011;3040;42.654;23.296;2023-06-26T04:46:15;17.90;;;16.50;;
6023;SDS011;3040;42.654;23.296;2023-06-26T04:48:42;20.07;;;18.07;;
6023;SDS011;3040;42.654;23.296;2023-06-26T04:51:11;19.67;;;17.80;;
6023;SDS011;3040;42.654;23.296;2023-06-26T04:53:38;19.43;;;17.60;;
6023;SDS011;3040;42.654;23.296;2023-06-26T04:56:05;18.60;;;17.40;;
6023;SDS011;3040;42.654;23.296;2023-06-26T04:58:32;19.17;;;17.73;;
6023;SDS011;3040;42.654;23.296;2023-06-26T05:00:58;21.17;;;17.60;;
6023;SDS011;3040;42.654;23.296;2023-06-26T05:03:25;20.27;;;18.37;;
6023;SDS011;3040;42.654;23.296;2023-06-26T05:05:52;19.90;;;17.33;;
6023;SDS011;3040;42.654;23.296;2023-06-26T05:08:22;18.80;;;17.43;;
6023;SDS011;3040;42.654;23.296;2023-06-26T05:10:51;19.30;;;17.80;;
6023;SDS011;3040;42.654;23.296;2023-06-26T05:13:22;19.40;;;17.90;;
6023;SDS011;3040;42.654;23.296;2023-06-26T05:15:49;20.07;;;17.97;;
6023;SDS011;3040;42.654;23.296;2023-06-26T05:18:16;18.73;;;17.47;;
6023;SDS011;3040;42.654;23.296;2023-06-26T05:20:43;19.10;;;17.80;;
6023;SDS011;3040;42.654;23.296;2023-06-26T05:23:11;18.80;;;17.30;;
6023;SDS011;3040;42.654;23.296;2023-06-26T05:25:39;18.63;;;17.10;;
6023;SDS011;3040;42.654;23.296;2023-06-26T05:28:07;19.93;;;18.00;;
6023;SDS011;3040;42.654;23.296;2023-06-26T05:30:36;19.23;;;17.47;;
6023;SDS011;3040;42.654;23.296;2023-06-26T05:33:03;19.10;;;17.47;;
6023;SDS011;3040;42.654;23.296;2023-06-26T05:35:31;19.10;;;17.50;;
6023;SDS011;3040;42.654;23.296;2023-06-26T05:37:58;19.60;;;17.97;;
6023;SDS011;3040;42.654;23.296;2023-06-26T05:40:26;18.77;;;17.27;;
6023;SDS011;3040;42.654;23.296;2023-06-26T05:42:54;19.00;;;17.70;;
6023;SDS011;3040;42.654;23.296;2023-06-26T05:45:21;19.23;;;17.43;;
6023;SDS011;3040;42.654;23.296;2023-06-26T05:47:48;20.17;;;18.47;;
6023;SDS011;3040;42.654;23.296;2023-06-26T05:50:17;19.43;;;17.80;;
6023;SDS011;3040;42.654;23.296;2023-06-26T05:52:45;19.13;;;17.63;;
6023;SDS011;3040;42.654;23.296;2023-06-26T05:55:13;18.67;;;17.23;;
6023;SDS011;3040;42.654;23.296;2023-06-26T05:57:40;17.90;;;16.60;;
6023;SDS011;3040;42.654;23.296;2023-06-26T06:00:09;20.00;;;17.87;;
6023;SDS011;3040;42.654;23.296;2023-06-26T06:02:37;18.40;;;16.90;;
6023;SDS011;3040;42.654;23.296;2023-06-26T06:05:04;18.13;;;16.73;;
6023;SDS011;3040;42.654;23.296;2023-06-26T06:07:32;18.40;;;16.93;;
6023;SDS011;3040;42.654;23.296;2023-06-26T06:09:59;17.73;;;16.43;;
6023;SDS011;3040;42.654;23.296;2023-06-26T06:12:26;18.80;;;16.87;;
6023;SDS011;3040;42.654;23.296;2023-06-26T06:14:53;17.30;;;16.10;;
6023;SDS011;3040;42.654;23.296;2023-06-26T06:17:21;17.13;;;15.83;;
6023;SDS011;3040;42.654;23.296;2023-06-26T06:19:48;17.77;;;16.03;;
6023;SDS011;3040;42.654;23.296;2023-06-26T06:22:15;16.93;;;15.77;;
6023;SDS011;3040;42.654;23.296;2023-06-26T06:24:42;16.60;;;15.33;;
6023;SDS011;3040;42.654;23.296;2023-06-26T06:27:10;17.27;;;16.03;;
6023;SDS011;3040;42.654;23.296;2023-06-26T06:29:37;15.70;;;14.80;;
6023;SDS011;3040;42.654;23.296;2023-06-26T06:32:04;15.60;;;14.70;;
6023;SDS011;3040;42.654;23.296;2023-06-26T06:34:32;15.83;;;14.50;;
6023;SDS011;3040;42.654;23.296;2023-06-26T06:36:59;15.90;;;14.80;;
6023;SDS011;3040;42.654;23.296;2023-06-26T06:39:26;15.20;;;14.30;;
6023;SDS011;3040;42.654;23.296;2023-06-26T06:41:53;16.67;;;15.33;;
6023;SDS011;3040;42.654;23.296;2023-06-26T06:44:20;15.03;;;13.87;;
6023;SDS011;3040;42.654;23.296;2023-06-26T06:46:47;15.60;;;14.50;;
6023;SDS011;3040;42.654;23.296;2023-06-26T06:49:14;14.17;;;13.37;;
6023;SDS011;3040;42.654;23.296;2023-06-26T06:51:42;15.50;;;14.20;;
6023;SDS011;3040;42.654;23.296;2023-06-26T06:54:09;14.17;;;13.00;;
6023;SDS011;3040;42.654;23.296;2023-06-26T06:56:36;12.97;;;12.27;;
6023;SDS011;3040;42.654;23.296;2023-06-26T06:59:03;13.43;;;12.33;;
6023;SDS011;3040;42.654;23.296;2023-06-26T07:01:29;16.37;;;14.10;;
6023;SDS011;3040;42.654;23.296;2023-06-26T07:03:56;12.97;;;12.10;;
6023;SDS011;3040;42.654;23.296;2023-06-26T07:06:23;12.57;;;11.37;;
6023;SDS011;3040;42.654;23.296;2023-06-26T07:08:52;10.70;;;10.20;;
6023;SDS011;3040;42.654;23.296;2023-06-26T07:11:18;12.57;;;11.73;;
6023;SDS011;3040;42.654;23.296;2023-06-26T07:13:45;10.70;;;10.17;;
6023;SDS011;3040;42.654;23.296;2023-06-26T07:16:12;10.33;;;9.73;;
6023;SDS011;3040;42.654;23.296;2023-06-26T07:18:40;10.20;;;9.63;;
6023;SDS011;3040;42.654;23.296;2023-06-26T07:21:07;8.80;;;8.20;;
6023;SDS011;3040;42.654;23.296;2023-06-26T07:23:34;11.27;;;10.57;;
6023;SDS011;3040;42.654;23.296;2023-06-26T07:26:02;9.43;;;8.80;;
6023;SDS011;3040;42.654;23.296;2023-06-26T07:28:29;10.60;;;10.00;;
6023;SDS011;3040;42.654;23.296;2023-06-26T07:30:56;10.27;;;9.40;;
6023;SDS011;3040;42.654;23.296;2023-06-26T07:33:23;9.50;;;9.07;;
6023;SDS011;3040;42.654;23.296;2023-06-26T07:35:50;9.93;;;9.43;;
6023;SDS011;3040;42.654;23.296;2023-06-26T07:38:17;8.57;;;8.17;;
6023;SDS011;3040;42.654;23.296;2023-06-26T07:40:44;7.83;;;7.20;;
6023;SDS011;3040;42.654;23.296;2023-06-26T07:43:12;6.87;;;6.57;;
6023;SDS011;3040;42.654;23.296;2023-06-26T07:45:39;6.33;;;6.00;;
6023;SDS011;3040;42.654;23.296;2023-06-26T07:48:06;7.20;;;6.67;;
6023;SDS011;3040;42.654;23.296;2023-06-26T07:50:34;8.93;;;8.30;;
6023;SDS011;3040;42.654;23.296;2023-06-26T07:53:00;8.80;;;8.40;;
6023;SDS011;3040;42.654;23.296;2023-06-26T07:55:27;8.13;;;7.73;;
6023;SDS011;3040;42.654;23.296;2023-06-26T07:57:54;5.80;;;5.50;;
6023;SDS011;3040;42.654;23.296;2023-06-26T08:00:22;6.60;;;6.30;;
6023;SDS011;3040;42.654;23.296;2023-06-26T08:02:49;6.87;;;6.57;;
6023;SDS011;3040;42.654;23.296;2023-06-26T08:05:16;7.13;;;6.73;;
6023;SDS011;3040;42.654;23.296;2023-06-26T08:07:43;7.53;;;7.03;;
6023;SDS011;3040;42.654;23.296;2023-06-26T08:10:10;7.37;;;6.97;;
6023;SDS011;3040;42.654;23.296;2023-06-26T08:12:37;7.20;;;6.90;;
6023;SDS011;3040;42.654;23.296;2023-06-26T08:15:05;7.07;;;6.77;;
6023;SDS011;3040;42.654;23.296;2023-06-26T08:17:35;6.70;;;6.30;;
6023;SDS011;3040;42.654;23.296;2023-06-26T08:20:02;6.93;;;6.23;;
6023;SDS011;3040;42.654;23.296;2023-06-26T08:22:29;10.30;;;6.53;;
6023;SDS011;3040;42.654;23.296;2023-06-26T08:24:56;6.63;;;6.33;;
6023;SDS011;3040;42.654;23.296;2023-06-26T08:27:23;6.37;;;5.77;;
6023;SDS011;3040;42.654;23.296;2023-06-26T08:29:51;6.17;;;5.97;;
6023;SDS011;3040;42.654;23.296;2023-06-26T08:32:17;6.40;;;6.10;;
6023;SDS011;3040;42.654;23.296;2023-06-26T08:34:45;6.80;;;6.40;;
6023;SDS011;3040;42.654;23.296;2023-06-26T08:37:12;6.33;;;6.13;;
6023;SDS011;3040;42.654;23.296;2023-06-26T08:39:39;7.90;;;6.87;;
6023;SDS011;3040;42.654;23.296;2023-06-26T08:42:06;6.17;;;5.80;;
6023;SDS011;3040;42.654;23.296;2023-06-26T08:44:33;5.70;;;5.30;;
6023;SDS011;3040;42.654;23.296;2023-06-26T08:47:00;5.53;;;5.07;;
6023;SDS011;3040;42.654;23.296;2023-06-26T08:49:28;5.90;;;5.60;;
6023;SDS011;3040;42.654;23.296;2023-06-26T08:52:06;5.90;;;5.60;;
6023;SDS011;3040;42.654;23.296;2023-06-26T08:54:40;6.80;;;6.20;;
6023;SDS011;3040;42.654;23.296;2023-06-26T08:57:12;6.20;;;5.80;;
6023;SDS011;3040;42.654;23.296;2023-06-26T08:59:44;6.23;;;6.00;;
6023;SDS011;3040;42.654;23.296;2023-06-26T09:02:12;7.17;;;6.20;;
6023;SDS011;3040;42.654;23.296;2023-06-26T09:04:39;5.63;;;5.33;;
6023;SDS011;3040;42.654;23.296;2023-06-26T09:07:08;4.67;;;4.47;;
6023;SDS011;3040;42.654;23.296;2023-06-26T09:09:35;5.47;;;5.17;;
6023;SDS011;3040;42.654;23.296;2023-06-26T09:12:02;6.00;;;5.60;;
6023;SDS011;3040;42.654;23.296;2023-06-26T09:14:29;5.50;;;5.07;;
6023;SDS011;3040;42.654;23.296;2023-06-26T09:16:56;5.80;;;5.23;;
6023;SDS011;3040;42.654;23.296;2023-06-26T09:19:23;5.23;;;4.83;;
6023;SDS011;3040;42.654;23.296;2023-06-26T09:21:50;6.03;;;5.73;;
6023;SDS011;3040;42.654;23.296;2023-06-26T09:24:18;5.67;;;5.47;;
6023;SDS011;3040;42.654;23.296;2023-06-26T09:26:45;5.67;;;5.30;;
6023;SDS011;3040;42.654;23.296;2023-06-26T09:29:13;6.50;;;5.73;;
6023;SDS011;3040;42.654;23.296;2023-06-26T09:31:40;5.77;;;5.57;;
6023;SDS011;3040;42.654;23.296;2023-06-26T09:34:08;5.90;;;5.50;;
6023;SDS011;3040;42.654;23.296;2023-06-26T09:36:35;5.90;;;5.70;;
6023;SDS011;3040;42.654;23.296;2023-06-26T09:39:03;5.77;;;5.47;;
6023;SDS011;3040;42.654;23.296;2023-06-26T09:41:34;6.43;;;5.90;;
6023;SDS011;3040;42.654;23.296;2023-06-26T09:44:03;6.13;;;5.63;;
6023;SDS011;3040;42.654;23.296;2023-06-26T09:46:30;6.20;;;5.83;;
6023;SDS011;3040;42.654;23.296;2023-06-26T09:48:58;5.77;;;5.50;;
6023;SDS011;3040;42.654;23.296;2023-06-26T09:51:28;5.47;;;5.17;;
6023;SDS011;3040;42.654;23.296;2023-06-26T09:53:55;5.27;;;4.90;;
6023;SDS011;3040;42.654;23.296;2023-06-26T09:56:22;4.93;;;4.73;;
6023;SDS011;3040;42.654;23.296;2023-06-26T09:58:50;5.67;;;5.30;;
6023;SDS011;3040;42.654;23.296;2023-06-26T10:01:17;5.27;;;5.07;;
6023;SDS011;3040;42.654;23.296;2023-06-26T10:03:45;5.50;;;5.10;;
6023;SDS011;3040;42.654;23.296;2023-06-26T10:06:11;5.33;;;5.03;;
6023;SDS011;3040;42.654;23.296;2023-06-26T10:08:39;6.00;;;5.27;;
6023;SDS011;3040;42.654;23.296;2023-06-26T10:11:08;6.20;;;5.70;;
6023;SDS011;3040;42.654;23.296;2023-06-26T10:13:42;5.77;;;5.57;;
6023;SDS011;3040;42.654;23.296;2023-06-26T10:16:13;5.47;;;5.07;;
6023;SDS011;3040;42.654;23.296;2023-06-26T10:18:48;5.63;;;5.43;;
6023;SDS011;3040;42.654;23.296;2023-06-26T10:21:17;9.10;;;5.03;;
6023;SDS011;3040;42.654;23.296;2023-06-26T10:23:46;4.97;;;4.60;;
6023;SDS011;3040;42.654;23.296;2023-06-26T10:26:13;5.70;;;5.30;;
6023;SDS011;3040;42.654;23.296;2023-06-26T10:28:42;6.13;;;5.17;;
6023;SDS011;3040;42.654;23.296;2023-06-26T10:31:14;5.50;;;5.07;;
6023;SDS011;3040;42.654;23.296;2023-06-26T10:33:42;7.50;;;4.50;;
6023;SDS011;3040;42.654;23.296;2023-06-26T10:36:13;4.83;;;4.47;;
6023;SDS011;3040;42.654;23.296;2023-06-26T10:38:48;5.00;;;4.73;;
6023;SDS011;3040;42.654;23.296;2023-06-26T10:41:17;4.97;;;4.77;;
6023;SDS011;3040;42.654;23.296;2023-06-26T10:43:48;5.63;;;5.43;;
6023;SDS011;3040;42.654;23.296;2023-06-26T10:46:18;6.33;;;5.17;;
6023;SDS011;3040;42.654;23.296;2023-06-26T10:48:55;7.07;;;5.10;;
6023;SDS011;3040;42.654;23.296;2023-06-26T10:51:24;5.50;;;5.20;;
6023;SDS011;3040;42.654;23.296;2023-06-26T10:53:53;5.60;;;5.20;;
6023;SDS011;3040;42.654;23.296;2023-06-26T10:56:20;7.33;;;5.60;;
6023;SDS011;3040;42.654;23.296;2023-06-26T10:58:47;4.47;;;4.17;;
6023;SDS011;3040;42.654;23.296;2023-06-26T11:01:19;5.27;;;5.07;;
6023;SDS011;3040;42.654;23.296;2023-06-26T11:03:48;5.53;;;5.33;;
6023;SDS011;3040;42.654;23.296;2023-06-26T11:06:27;5.60;;;5.07;;
6023;SDS011;3040;42.654;23.296;2023-06-26T11:09:00;5.83;;;5.40;;
6023;SDS011;3040;42.654;23.296;2023-06-26T11:14:29;5.97;;;5.67;;
6023;SDS011;3040;42.654;23.296;2023-06-26T11:16:58;6.20;;;5.73;;
6023;SDS011;3040;42.654;23.296;2023-06-26T11:19:28;6.00;;;5.60;;
6023;SDS011;3040;42.654;23.296;2023-06-26T11:21:58;7.67;;;6.10;;
6023;SDS011;3040;42.654;23.296;2023-06-26T11:24:26;5.60;;;5.40;;
6023;SDS011;3040;42.654;23.296;2023-06-26T11:26:53;6.67;;;6.27;;
6023;SDS011;3040;42.654;23.296;2023-06-26T11:29:19;5.87;;;5.50;;
6023;SDS011;3040;42.654;23.296;2023-06-26T11:31:46;5.80;;;5.50;;
6023;SDS011;3040;42.654;23.296;2023-06-26T11:34:14;6.27;;;5.70;;
6023;SDS011;3040;42.654;23.296;2023-06-26T11:36:42;5.30;;;5.00;;
6023;SDS011;3040;42.654;23.296;2023-06-26T11:39:11;9.50;;;5.93;;
6023;SDS011;3040;42.654;23.296;2023-06-26T11:41:38;5.10;;;4.70;;
6023;SDS011;3040;42.654;23.296;2023-06-26T11:44:07;5.80;;;5.27;;
6023;SDS011;3040;42.654;23.296;2023-06-26T11:46:35;5.47;;;5.10;;
6023;SDS011;3040;42.654;23.296;2023-06-26T11:49:03;5.43;;;5.10;;
6023;SDS011;3040;42.654;23.296;2023-06-26T11:51:31;5.93;;;5.43;;
6023;SDS011;3040;42.654;23.296;2023-06-26T11:54:00;5.53;;;5.33;;
6023;SDS011;3040;42.654;23.296;2023-06-26T11:56:29;6.33;;;5.87;;
6023;SDS011;3040;42.654;23.296;2023-06-26T11:58:56;6.43;;;5.93;;
6023;SDS011;3040;42.654;23.296;2023-06-26T12:01:23;6.40;;;6.10;;
6023;SDS011;3040;42.654;23.296;2023-06-26T12:03:53;6.40;;;6.10;;
6023;SDS011;3040;42.654;23.296;2023-06-26T12:06:24;6.13;;;5.93;;
6023;SDS011;3040;42.654;23.296;2023-06-26T12:08:53;6.50;;;6.20;;
6023;SDS011;3040;42.654;23.296;2023-06-26T12:11:21;5.40;;;5.10;;
6023;SDS011;3040;42.654;23.296;2023-06-26T12:13:50;6.17;;;5.77;;
6023;SDS011;3040;42.654;23.296;2023-06-26T12:16:18;6.03;;;5.53;;
6023;SDS011;3040;42.654;23.296;2023-06-26T12:18:45;6.80;;;5.80;;
6023;SDS011;3040;42.654;23.296;2023-06-26T12:24:16;5.93;;;5.37;;
6023;SDS011;3040;42.654;23.296;2023-06-26T12:26:45;5.93;;;5.53;;
6023;SDS011;3040;42.654;23.296;2023-06-26T12:29:13;5.53;;;5.23;;
6023;SDS011;3040;42.654;23.296;2023-06-26T12:31:42;5.27;;;4.97;;
6023;SDS011;3040;42.654;23.296;2023-06-26T12:34:11;5.67;;;5.33;;
6023;SDS011;3040;42.654;23.296;2023-06-26T12:36:40;6.40;;;5.23;;
6023;SDS011;3040;42.654;23.296;2023-06-26T12:39:09;8.30;;;5.93;;
6023;SDS011;3040;42.654;23.296;2023-06-26T12:41:44;6.47;;;5.73;;
6023;SDS011;3040;42.654;23.296;2023-06-26T12:44:22;5.23;;;5.03;;
6023;SDS011;3040;42.654;23.296;2023-06-26T12:46:53;6.30;;;5.70;;
6023;SDS011;3040;42.654;23.296;2023-06-26T12:49:28;5.83;;;5.63;;
6023;SDS011;3040;42.654;23.296;2023-06-26T12:51:55;5.77;;;5.57;;
6023;SDS011;3040;42.654;23.296;2023-06-26T12:54:22;5.97;;;5.57;;
6023;SDS011;3040;42.654;23.296;2023-06-26T12:56:50;5.57;;;5.23;;
6023;SDS011;3040;42.654;23.296;2023-06-26T12:59:17;6.37;;;6.07;;
6023;SDS011;3040;42.654;23.296;2023-06-26T13:01:44;6.07;;;5.57;;
6023;SDS011;3040;42.654;23.296;2023-06-26T13:04:11;7.17;;;6.07;;
6023;SDS011;3040;42.654;23.296;2023-06-26T13:06:38;6.40;;;5.73;;
6023;SDS011;3040;42.654;23.296;2023-06-26T13:09:04;7.43;;;5.77;;
6023;SDS011;3040;42.654;23.296;2023-06-26T13:11:32;5.60;;;5.20;;
6023;SDS011;3040;42.654;23.296;2023-06-26T13:14:01;12.27;;;6.40;;
6023;SDS011;3040;42.654;23.296;2023-06-26T13:16:28;9.03;;;6.30;;
6023;SDS011;3040;42.654;23.296;2023-06-26T13:18:57;6.40;;;6.10;;
6023;SDS011;3040;42.654;23.296;2023-06-26T13:21:25;6.27;;;6.00;;
6023;SDS011;3040;42.654;23.296;2023-06-26T13:23:52;6.47;;;5.60;;
6023;SDS011;3040;42.654;23.296;2023-06-26T13:26:19;6.17;;;5.67;;
6023;SDS011;3040;42.654;23.296;2023-06-26T13:28:46;5.83;;;5.43;;
6023;SDS011;3040;42.654;23.296;2023-06-26T13:31:15;6.40;;;5.80;;
6023;SDS011;3040;42.654;23.296;2023-06-26T13:33:42;7.23;;;5.90;;
6023;SDS011;3040;42.654;23.296;2023-06-26T13:36:10;5.73;;;5.20;;
6023;SDS011;3040;42.654;23.296;2023-06-26T13:38:37;13.90;;;5.80;;
6023;SDS011;3040;42.654;23.296;2023-06-26T13:41:06;5.30;;;5.00;;
6023;SDS011;3040;42.654;23.296;2023-06-26T13:43:33;4.97;;;4.73;;
6023;SDS011;3040;42.654;23.296;2023-06-26T13:46:00;4.67;;;4.47;;
6023;SDS011;3040;42.654;23.296;2023-06-26T13:48:29;8.20;;;5.43;;
6023;SDS011;3040;42.654;23.296;2023-06-26T13:50:57;5.80;;;5.50;;
6023;SDS011;3040;42.654;23.296;2023-06-26T13:53:24;5.73;;;5.43;;
6023;SDS011;3040;42.654;23.296;2023-06-26T13:55:51;5.53;;;5.20;;
6023;SDS011;3040;42.654;23.296;2023-06-26T13:58:18;5.07;;;4.87;;
6023;SDS011;3040;42.654;23.296;2023-06-26T14:00:47;5.57;;;4.80;;
6023;SDS011;3040;42.654;23.296;2023-06-26T14:03:14;5.20;;;4.90;;
6023;SDS011;3040;42.654;23.296;2023-06-26T14:05:44;6.17;;;5.73;;
6023;SDS011;3040;42.654;23.296;2023-06-26T14:08:11;6.07;;;5.77;;
6023;SDS011;3040;42.654;23.296;2023-06-26T14:10:37;7.87;;;5.53;;
6023;SDS011;3040;42.654;23.296;2023-06-26T14:13:04;6.33;;;5.73;;
6023;SDS011;3040;42.654;23.296;2023-06-26T14:15:32;6.10;;;5.50;;
6023;SDS011;3040;42.654;23.296;2023-06-26T14:17:59;5.93;;;5.63;;
6023;SDS011;3040;42.654;23.296;2023-06-26T14:20:27;6.00;;;5.60;;
6023;SDS011;3040;42.654;23.296;2023-06-26T14:22:59;5.47;;;5.10;;
6023;SDS011;3040;42.654;23.296;2023-06-26T14:25:26;6.00;;;5.67;;
6023;SDS011;3040;42.654;23.296;2023-06-26T14:27:54;5.20;;;4.80;;
6023;SDS011;3040;42.654;23.296;2023-06-26T14:30:21;6.23;;;4.93;;
6023;SDS011;3040;42.654;23.296;2023-06-26T14:32:48;5.30;;;5.10;;
6023;SDS011;3040;42.654;23.296;2023-06-26T14:35:15;5.43;;;5.13;;
6023;SDS011;3040;42.654;23.296;2023-06-26T14:37:41;5.93;;;5.33;;
6023;SDS011;3040;42.654;23.296;2023-06-26T14:40:11;5.87;;;5.37;;
6023;SDS011;3040;42.654;23.296;2023-06-26T14:42:38;5.90;;;5.53;;
6023;SDS011;3040;42.654;23.296;2023-06-26T14:45:05;6.30;;;5.80;;
6023;SDS011;3040;42.654;23.296;2023-06-26T14:47:33;5.80;;;5.40;;
6023;SDS011;3040;42.654;23.296;2023-06-26T14:49:59;5.33;;;5.13;;
6023;SDS011;3040;42.654;23.296;2023-06-26T14:52:26;7.07;;;5.77;;
6023;SDS011;3040;42.654;23.296;2023-06-26T14:54:53;6.40;;;5.90;;
6023;SDS011;3040;42.654;23.296;2023-06-26T14:57:21;7.27;;;6.13;;